Time;durP1;ratioP1;P1;durP2;ratioP2;P2;SDS_P1;SDS_P2;PMS_P1;PMS_P2;Temp;Humidity;BMP_temperature;BMP_pressure;BME280_temperature;BME280_humidity;BME280_pressure;Samples;Min_cycle;Max_cycle;Signal;HPM_P1;HPM_P2
2022/03/18 00:00:51;;;;;;;8.75;5.75;;;;;;;4.23;100.00;100569.34;4175907;28;20819;-71
2022/03/18 00:02:53;;;;;;;17.15;5.60;;;;;;;4.26;100.00;100567.13;4175648;28;20448;-71
2022/03/18 00:04:54;;;;;;;14.20;5.90;;;;;;;4.25;100.00;100563.59;4176005;28;20049;-71
2022/03/18 00:06:55;;;;;;;11.45;6.40;;;;;;;4.22;100.00;100562.25;4171816;28;20546;-71
2022/03/18 00:08:55;;;;;;;12.20;5.32;;;;;;;4.19;100.00;100565.53;4173314;28;20040;-71
2022/03/18 00:10:56;;;;;;;11.93;5.43;;;;;;;4.19;100.00;100571.00;4176514;28;20095;-71
2022/03/18 00:12:56;;;;;;;11.70;6.00;;;;;;;4.23;100.00;100576.75;4175913;28;20040;-71
2022/03/18 00:14:56;;;;;;;10.38;5.55;;;;;;;4.26;100.00;100572.63;4178272;28;20029;-71
2022/03/18 00:16:58;;;;;;;9.82;5.03;;;;;;;4.23;100.00;100569.34;4174740;28;20463;-71
2022/03/18 00:19:00;;;;;;;12.60;6.38;;;;;;;4.20;100.00;100580.03;4174784;28;20041;-71
2022/03/18 00:21:01;;;;;;;10.05;5.10;;;;;;;4.20;100.00;100585.53;4174121;28;20110;-71
2022/03/18 00:23:01;;;;;;;11.13;5.88;;;;;;;4.14;100.00;100582.03;4175256;28;20431;-71
2022/03/18 00:25:02;;;;;;;10.45;5.03;;;;;;;4.13;100.00;100583.09;4175466;28;20047;-71
2022/03/18 00:27:04;;;;;;;8.05;4.88;;;;;;;4.12;100.00;100580.66;4175585;28;20036;-71
2022/03/18 00:29:04;;;;;;;8.15;4.50;;;;;;;4.15;100.00;100580.09;4174638;28;20051;-71
2022/03/18 00:31:06;;;;;;;9.82;4.97;;;;;;;4.17;99.72;100581.44;4174442;28;20389;-71
2022/03/18 00:33:06;;;;;;;9.13;4.80;;;;;;;4.13;100.00;100591.31;4176081;28;20212;-71
2022/03/18 00:35:08;;;;;;;7.65;4.65;;;;;;;4.08;99.88;100583.16;4169436;28;20041;-71
2022/03/18 00:37:09;;;;;;;10.25;4.65;;;;;;;4.07;100.00;100587.00;4168901;28;20730;-71
2022/03/18 00:39:09;;;;;;;10.73;5.32;;;;;;;4.06;100.00;100585.38;4169436;28;20441;-71
2022/03/18 00:41:09;;;;;;;11.65;4.88;;;;;;;4.05;100.00;100591.91;4173399;28;20051;-71
2022/03/18 00:43:10;;;;;;;15.40;4.75;;;;;;;4.02;100.00;100589.75;4184518;28;20419;-71
2022/03/18 00:45:10;;;;;;;8.07;4.53;;;;;;;4.02;100.00;100595.22;4184718;28;20127;-71
2022/03/18 00:52:04;;;;;;;16.60;7.03;;;;;;;3.94;100.00;100596.66;4173021;28;20503;-71
2022/03/18 00:54:05;;;;;;;12.02;6.78;;;;;;;3.92;100.00;100598.84;4174500;28;20727;-71
2022/03/18 00:56:05;;;;;;;17.77;7.47;;;;;;;3.91;100.00;100602.69;4185005;28;20064;-71
2022/03/18 00:58:05;;;;;;;15.30;7.00;;;;;;;3.84;100.00;100595.88;4183046;28;20040;-71
2022/03/18 01:00:07;;;;;;;11.48;6.05;;;;;;;3.89;100.00;100606.81;4183964;28;20548;-72
2022/03/18 01:02:07;;;;;;;12.57;6.82;;;;;;;3.80;100.00;100603.81;4184562;28;20098;-71
2022/03/18 01:04:08;;;;;;;11.07;6.47;;;;;;;3.75;100.00;100600.31;4170937;28;20040;-71
2022/03/18 01:06:08;;;;;;;14.38;6.75;;;;;;;3.67;100.00;100602.53;4168364;28;20036;-71
2022/03/18 01:08:08;;;;;;;14.10;6.47;;;;;;;3.58;100.00;100601.47;4183159;28;20032;-71
2022/03/18 01:10:09;;;;;;;11.50;7.05;;;;;;;3.56;100.00;100598.22;4173621;28;20052;-71
2022/03/18 01:12:10;;;;;;;13.05;6.95;;;;;;;3.51;100.00;100613.81;4179084;28;20039;-71
2022/03/18 01:14:10;;;;;;;14.13;6.93;;;;;;;3.43;100.00;100600.72;4186273;28;20072;-71
2022/03/18 01:16:10;;;;;;;10.38;6.18;;;;;;;3.37;100.00;100606.19;4187972;28;20115;-71
2022/03/18 01:18:11;;;;;;;13.55;6.30;;;;;;;3.32;100.00;100608.97;4186679;28;20078;-71
2022/03/18 01:20:11;;;;;;;11.77;6.18;;;;;;;3.35;100.00;100624.00;4186548;28;20452;-71
2022/03/18 01:22:11;;;;;;;12.05;6.38;;;;;;;3.37;100.00;100616.31;4187657;28;20674;-71
2022/03/18 01:24:12;;;;;;;11.50;6.13;;;;;;;3.38;100.00;100616.03;4171080;28;20123;-71
2022/03/18 01:26:12;;;;;;;14.73;7.10;;;;;;;3.31;100.00;100614.69;4185919;28;20718;-71
2022/03/18 01:28:13;;;;;;;15.65;6.15;;;;;;;3.27;100.00;100619.09;4178826;28;20491;-71
2022/03/18 01:30:16;;;;;;;14.25;6.82;;;;;;;3.22;100.00;100621.84;4175672;28;20032;-71
2022/03/18 01:32:17;;;;;;;15.30;6.93;;;;;;;3.22;100.00;100622.66;4177357;28;20039;-71
2022/03/18 01:34:17;;;;;;;11.93;6.50;;;;;;;3.24;100.00;100625.94;4171945;28;20532;-71
2022/03/18 01:36:17;;;;;;;14.27;7.47;;;;;;;3.18;100.00;100626.22;4171867;28;20029;-71
2022/03/18 01:38:18;;;;;;;13.23;6.45;;;;;;;3.14;100.00;100625.13;4172655;28;20985;-71
2022/03/18 01:40:19;;;;;;;13.60;6.18;;;;;;;3.12;100.00;100622.69;4182027;28;20039;-71
2022/03/18 01:42:19;;;;;;;12.07;6.03;;;;;;;3.11;100.00;100629.25;4185644;28;20648;-71
2022/03/18 01:44:19;;;;;;;13.70;6.47;;;;;;;3.09;100.00;100625.97;4172238;28;20033;-71
2022/03/18 01:46:21;;;;;;;12.57;6.07;;;;;;;3.09;100.00;100625.97;4171725;28;20479;-71
2022/03/18 01:48:22;;;;;;;12.67;6.97;;;;;;;3.08;100.00;100629.81;4184042;28;20118;-71
2022/03/18 01:50:22;;;;;;;12.38;7.55;;;;;;;3.12;100.00;100624.59;4187710;28;20291;-71
2022/03/18 01:52:24;;;;;;;12.75;5.45;;;;;;;3.14;100.00;100625.13;4185654;28;20048;-71
2022/03/18 01:56:43;;;;;;;10.60;5.68;;;;;;;3.05;100.00;100638.56;4185937;28;20098;-71
2022/03/18 01:58:44;;;;;;;10.48;6.18;;;;;;;3.05;100.00;100635.81;4174177;28;20037;-71
2022/03/18 02:00:44;;;;;;;15.88;6.22;;;;;;;3.03;100.00;100632.53;4178454;28;20060;-71
2022/03/18 02:02:44;;;;;;;12.45;5.40;;;;;;;3.03;100.00;100629.81;4186433;28;20115;-71
2022/03/18 02:04:45;;;;;;;11.55;5.63;;;;;;;3.03;100.00;100638.81;4186788;28;20055;-71
2022/03/18 02:06:46;;;;;;;10.63;5.47;;;;;;;3.00;100.00;100638.56;4185451;28;20076;-71
2022/03/18 02:08:47;;;;;;;16.05;6.43;;;;;;;2.97;100.00;100636.38;4186297;28;20418;-71
2022/03/18 02:10:49;;;;;;;11.20;5.57;;;;;;;2.95;100.00;100644.03;4176651;28;20041;-71
2022/03/18 02:12:49;;;;;;;12.10;5.72;;;;;;;2.93;100.00;100641.59;4171759;28;20037;-71
2022/03/18 02:14:49;;;;;;;14.05;5.53;;;;;;;2.96;100.00;100651.13;4170542;28;20111;-71
2022/03/18 02:16:50;;;;;;;11.13;5.53;;;;;;;2.94;100.00;100645.94;4170731;28;20044;-71
2022/03/18 02:18:50;;;;;;;9.75;5.22;;;;;;;2.91;100.00;100645.69;4172165;28;20143;-71
2022/03/18 02:20:50;;;;;;;9.77;5.57;;;;;;;2.93;100.00;100658.00;4171342;28;20049;-71
2022/03/18 02:22:51;;;;;;;13.43;5.55;;;;;;;2.89;100.00;100651.41;4171610;28;20061;-71
2022/03/18 02:24:54;;;;;;;12.18;5.53;;;;;;;2.85;100.00;100658.53;4181524;28;20083;-71
2022/03/18 02:26:55;;;;;;;8.55;5.60;;;;;;;2.87;100.00;100655.53;4173334;28;20102;-71
2022/03/18 02:28:57;;;;;;;13.02;5.53;;;;;;;2.88;100.00;100655.25;4173462;28;20468;-71
2022/03/18 02:30:58;;;;;;;10.15;5.28;;;;;;;2.87;100.00;100666.47;4178281;28;20377;-71
2022/03/18 02:32:59;;;;;;;8.50;4.60;;;;;;;2.87;100.00;100664.53;4185697;28;20044;-71
2022/03/18 02:35:01;;;;;;;9.32;4.70;;;;;;;2.87;100.00;100670.00;4186608;28;20772;-71
2022/03/18 02:37:01;;;;;;;8.57;4.55;;;;;;;2.86;100.00;100670.28;4176018;28;20045;-71
2022/03/18 02:39:02;;;;;;;10.52;5.15;;;;;;;2.80;100.00;100672.19;4170340;28;20423;-71
2022/03/18 02:41:02;;;;;;;14.05;5.65;;;;;;;2.84;100.00;100675.22;4170819;28;20049;-71
2022/03/18 02:43:03;;;;;;;9.52;5.22;;;;;;;2.81;100.00;100668.38;4171033;28;20120;-71
2022/03/18 02:45:03;;;;;;;9.77;6.47;;;;;;;2.79;100.00;100668.66;4170839;28;20049;-71
2022/03/18 02:47:04;;;;;;;8.27;4.82;;;;;;;2.77;100.00;100670.84;4170360;28;20399;-71
2022/03/18 02:49:05;;;;;;;13.75;5.60;;;;;;;2.77;100.00;100675.50;4170993;28;20423;-71
2022/03/18 02:51:07;;;;;;;11.93;6.13;;;;;;;2.76;100.00;100680.13;4170252;28;20156;-71
2022/03/18 02:53:07;;;;;;;12.40;6.10;;;;;;;2.77;100.00;100676.31;4169614;28;20477;-71
2022/03/18 02:55:09;;;;;;;9.77;5.53;;;;;;;2.77;100.00;100680.97;4171182;28;20049;-71
2022/03/18 02:57:09;;;;;;;12.30;5.50;;;;;;;2.75;100.00;100683.16;4177945;28;20041;-71
2022/03/18 02:59:09;;;;;;;12.43;5.60;;;;;;;2.74;100.00;100673.31;4186619;28;20124;-71
2022/03/18 03:01:10;;;;;;;15.93;5.55;;;;;;;2.76;100.00;100682.06;4185326;28;20044;-71
2022/03/18 03:03:10;;;;;;;13.75;6.43;;;;;;;2.74;100.00;100684.25;4185211;28;20399;-71
2022/03/18 03:09:48;;;;;;;13.15;5.20;;;;;;;2.75;100.00;100697.63;4170629;28;20087;-71
2022/03/18 03:11:48;;;;;;;17.10;5.75;;;;;;;2.74;100.00;100693.25;4175082;28;20044;-71
2022/03/18 03:13:49;;;;;;;14.93;5.85;;;;;;;2.69;100.00;100692.44;4185719;28;20519;-71
2022/03/18 03:15:50;;;;;;;10.50;5.45;;;;;;;2.70;100.00;100697.63;4186092;28;20049;-71
2022/03/18 03:17:50;;;;;;;10.43;5.55;;;;;;;2.67;100.00;100698.19;4173056;28;20784;-71
2022/03/18 03:19:51;;;;;;;12.98;5.60;;;;;;;2.62;100.00;100700.88;4173370;28;20032;-71
2022/03/18 03:21:51;;;;;;;11.43;4.95;;;;;;;2.58;100.00;100699.81;4173037;28;20045;-71
2022/03/18 03:23:51;;;;;;;13.18;5.57;;;;;;;2.60;100.00;100700.34;4170754;28;20404;-71
2022/03/18 03:25:53;;;;;;;10.88;5.70;;;;;;;2.60;100.00;100699.53;4169907;28;20045;-71
2022/03/18 03:27:54;;;;;;;7.68;4.47;;;;;;;2.61;100.00;100709.38;4168938;28;20049;-71
2022/03/18 03:29:54;;;;;;;13.10;5.20;;;;;;;2.64;100.00;100720.56;4170219;28;20041;-71
2022/03/18 03:31:55;;;;;;;13.88;5.25;;;;;;;2.62;100.00;100716.47;4169988;28;20468;-71
2022/03/18 03:33:55;;;;;;;7.47;4.63;;;;;;;2.60;100.00;100724.13;4169856;28;20107;-71
2022/03/18 03:35:55;;;;;;;9.50;4.93;;;;;;;2.54;100.00;100724.09;4169440;28;20389;-71
2022/03/18 03:37:56;;;;;;;12.77;4.93;;;;;;;2.56;100.00;100739.41;4174443;28;20048;-71
2022/03/18 03:39:56;;;;;;;9.82;5.15;;;;;;;2.54;100.00;100731.47;4174138;28;20072;-71
2022/03/18 03:41:56;;;;;;;10.57;5.35;;;;;;;2.52;100.00;100733.66;4170649;28;20056;-71
2022/03/18 03:43:57;;;;;;;8.85;4.70;;;;;;;2.47;100.00;100736.38;4170209;28;20072;-71
2022/03/18 03:45:57;;;;;;;12.65;5.05;;;;;;;2.48;100.00;100743.47;4184380;28;20155;-71
2022/03/18 03:47:57;;;;;;;8.60;5.22;;;;;;;2.45;100.00;100744.84;4184282;28;20076;-71
2022/03/18 03:49:58;;;;;;;9.77;4.80;;;;;;;2.47;100.00;100747.31;4183669;28;20048;-71
2022/03/18 03:51:58;;;;;;;7.28;4.43;;;;;;;2.43;100.00;100746.22;4184781;28;20037;-71
2022/03/18 03:53:58;;;;;;;14.68;4.95;;;;;;;2.41;100.00;100751.13;4179286;28;20822;-71
2022/03/18 03:55:59;;;;;;;12.35;5.00;;;;;;;2.36;100.00;100751.94;4169878;28;20601;-71
2022/03/18 03:57:59;;;;;;;7.93;4.32;;;;;;;2.36;100.00;100754.66;4168982;28;20124;-71
2022/03/18 03:59:59;;;;;;;7.20;4.05;;;;;;;2.35;100.00;100757.66;4170004;28;20045;-71
2022/03/18 04:02:00;;;;;;;8.57;3.90;;;;;;;2.36;100.00;100759.31;4165510;28;20083;-71
2022/03/18 04:04:00;;;;;;;6.93;3.72;;;;;;;2.32;100.00;100758.19;4171298;28;20063;-71
2022/03/18 04:06:01;;;;;;;8.20;4.40;;;;;;;2.32;100.00;100769.97;4172670;28;20118;-72
2022/03/18 04:08:02;;;;;;;11.20;3.88;;;;;;;2.31;100.00;100765.56;4171584;28;20323;-72
2022/03/18 04:10:04;;;;;;;8.02;4.75;;;;;;;2.31;100.00;100772.94;4173447;28;20096;-71
2022/03/18 04:12:04;;;;;;;7.53;4.20;;;;;;;2.27;100.00;100769.13;4176528;28;20021;-71
2022/03/18 04:14:05;;;;;;;11.65;4.53;;;;;;;2.30;100.00;100771.28;4176488;28;20157;-71
2022/03/18 04:16:05;;;;;;;6.65;3.55;;;;;;;2.32;100.00;100774.56;4173925;28;20094;-71
2022/03/18 04:18:05;;;;;;;7.80;3.47;;;;;;;2.33;100.00;100781.72;4175654;28;20028;-71
2022/03/18 04:20:09;;;;;;;6.95;3.83;;;;;;;2.25;100.00;100775.66;4170213;28;20047;-71
2022/03/18 04:22:09;;;;;;;9.77;4.60;;;;;;;2.25;100.00;100788.50;4175765;28;20075;-71
2022/03/18 04:24:10;;;;;;;7.85;3.50;;;;;;;2.23;100.00;100796.13;4174166;28;20532;-71
2022/03/18 04:26:10;;;;;;;9.77;3.33;;;;;;;2.21;100.00;100798.31;4171295;28;20037;-71
2022/03/18 04:28:11;;;;;;;10.07;4.03;;;;;;;2.24;100.00;100803.25;4172444;28;20029;-71
2022/03/18 04:30:13;;;;;;;10.45;4.45;;;;;;;2.24;100.00;100800.53;4173109;28;20081;-71
2022/03/18 04:32:13;;;;;;;9.35;3.90;;;;;;;2.24;100.00;100806.00;4173093;28;20443;-71
2022/03/18 04:34:14;;;;;;;7.82;3.30;;;;;;;2.29;100.00;100810.63;4176899;28;20025;-71
2022/03/18 04:36:14;;;;;;;9.10;3.75;;;;;;;2.31;100.00;100805.72;4176134;28;20040;-71
2022/03/18 04:38:14;;;;;;;7.55;3.80;;;;;;;2.34;100.00;100814.22;4174403;28;20083;-71
2022/03/18 04:40:15;;;;;;;9.20;3.28;;;;;;;2.40;100.00;100812.31;4173244;28;20379;-71
2022/03/18 04:42:16;;;;;;;8.98;4.00;;;;;;;2.45;100.00;100813.16;4171844;28;20037;-71
2022/03/18 04:44:16;;;;;;;8.50;3.78;;;;;;;2.46;100.00;100816.72;4171718;28;20032;-71
2022/03/18 04:46:16;;;;;;;10.10;3.33;;;;;;;2.49;100.00;100817.03;4173121;28;20439;-71
2022/03/18 04:48:17;;;;;;;14.15;3.85;;;;;;;2.53;100.00;100818.13;4173332;28;20024;-71
2022/03/18 04:50:17;;;;;;;9.60;3.47;;;;;;;2.58;100.00;100832.91;4173700;28;20057;-71
2022/03/18 04:52:17;;;;;;;13.23;3.95;;;;;;;2.59;100.00;100831.81;4173876;28;20437;-71
2022/03/18 04:54:18;;;;;;;11.40;3.55;;;;;;;2.62;100.00;100834.00;4173623;28;20360;-71
2022/03/18 04:58:37;;;;;;;9.20;3.72;;;;;;;2.69;99.46;100834.56;4175484;28;20086;-71
2022/03/18 05:00:38;;;;;;;9.80;3.70;;;;;;;2.71;98.99;100844.13;4175128;28;20070;-71
2022/03/18 05:02:38;;;;;;;9.80;3.97;;;;;;;2.66;99.60;100840.59;4169796;28;20425;-71
2022/03/18 05:04:39;;;;;;;9.52;4.25;;;;;;;2.63;99.88;100844.66;4173703;28;20037;-71
2022/03/18 05:06:40;;;;;;;20.65;4.97;;;;;;;2.61;99.57;100846.84;4168987;28;20489;-71
2022/03/18 05:08:40;;;;;;;11.57;4.10;;;;;;;2.53;99.34;100844.63;4173214;28;20087;-71
2022/03/18 05:10:40;;;;;;;17.10;4.45;;;;;;;2.53;99.40;100847.34;4173015;28;20200;-71
2022/03/18 05:12:41;;;;;;;14.27;4.15;;;;;;;2.49;99.42;100855.28;4174827;28;20113;-71
2022/03/18 05:14:41;;;;;;;11.32;4.22;;;;;;;2.52;98.31;100851.19;4170546;28;20044;-71
2022/03/18 05:16:42;;;;;;;19.95;4.65;;;;;;;2.45;98.42;100851.41;4174072;28;20225;-71
2022/03/18 05:18:43;;;;;;;12.98;3.88;;;;;;;2.45;98.48;100862.34;4175225;28;20061;-71
2022/03/18 05:20:43;;;;;;;12.25;4.15;;;;;;;2.35;98.42;100862.31;4178438;28;20041;-71
2022/03/18 05:22:45;;;;;;;8.80;3.88;;;;;;;2.27;98.73;100862.81;4173962;28;20044;-71
2022/03/18 05:24:45;;;;;;;8.60;4.90;;;;;;;2.24;98.66;100874.28;4173617;28;20043;-71
2022/03/18 05:26:45;;;;;;;12.73;5.50;;;;;;;2.17;99.12;100871.78;4175710;28;20484;-71
2022/03/18 05:28:46;;;;;;;9.52;5.32;;;;;;;2.11;99.41;100870.09;4175072;28;20323;-71
2022/03/18 05:30:46;;;;;;;11.27;4.28;;;;;;;2.06;100.00;100870.03;4172800;28;20311;-71
2022/03/18 05:32:46;;;;;;;9.85;3.97;;;;;;;2.01;100.00;100875.50;4176829;28;20045;-71
2022/03/18 05:34:47;;;;;;;18.20;6.70;;;;;;;1.96;100.00;100878.19;4174266;28;20056;-71
2022/03/18 05:36:47;;;;;;;9.68;4.13;;;;;;;1.93;100.00;100875.97;4173192;28;20048;-71
2022/03/18 05:38:47;;;;;;;18.75;5.25;;;;;;;1.94;100.00;100883.09;4175945;28;20041;-71
2022/03/18 05:40:48;;;;;;;14.20;4.75;;;;;;;1.89;100.00;100889.31;4173375;28;20044;-70
2022/03/18 05:42:48;;;;;;;7.25;3.85;;;;;;;1.86;100.00;100889.03;4176454;28;20037;-71
2022/03/18 05:44:49;;;;;;;12.18;4.50;;;;;;;1.82;100.00;100894.22;4174236;28;20053;-71
2022/03/18 05:46:49;;;;;;;7.65;4.22;;;;;;;1.82;100.00;100896.94;4174027;28;20059;-71
2022/03/18 05:48:50;;;;;;;13.65;4.97;;;;;;;1.79;100.00;100893.88;4174933;28;20048;-71
2022/03/18 05:50:51;;;;;;;13.88;5.50;;;;;;;1.78;100.00;100897.72;4177603;28;20028;-71
2022/03/18 05:52:52;;;;;;;10.95;4.55;;;;;;;1.71;100.00;100900.66;4176695;28;20055;-71
2022/03/18 05:54:52;;;;;;;11.57;5.25;;;;;;;1.71;100.00;100908.00;4178817;28;20032;-71
2022/03/18 05:56:53;;;;;;;13.07;4.78;;;;;;;1.73;100.00;100908.56;4176262;28;20049;-71
2022/03/18 05:58:54;;;;;;;10.82;4.47;;;;;;;1.72;100.00;100906.94;4177791;28;20037;-71
2022/03/18 06:00:55;;;;;;;9.02;4.20;;;;;;;1.73;100.00;100903.09;4175383;28;20717;-71
2022/03/18 06:02:55;;;;;;;8.93;4.85;;;;;;;1.71;100.00;100922.47;4174703;28;20374;-71
2022/03/18 06:04:57;;;;;;;9.23;4.50;;;;;;;1.69;100.00;100922.75;4176022;28;20428;-71
2022/03/18 06:06:57;;;;;;;11.82;4.65;;;;;;;1.71;100.00;100929.84;4170579;28;20059;-71
2022/03/18 06:13:35;;;;;;;15.32;5.50;;;;;;;1.63;100.00;100934.69;4170763;28;20533;-71
2022/03/18 06:15:36;;;;;;;11.77;5.18;;;;;;;1.65;100.00;100943.44;4169102;28;20453;-71
2022/03/18 06:17:36;;;;;;;12.18;5.05;;;;;;;1.66;100.00;100938.84;4176136;28;20147;-71
2022/03/18 06:19:36;;;;;;;9.73;4.25;;;;;;;1.67;100.00;100937.75;4169819;28;20131;-71
2022/03/18 06:21:37;;;;;;;10.52;5.07;;;;;;;1.69;100.00;100941.03;4166019;28;20063;-71
2022/03/18 06:23:37;;;;;;;9.38;4.65;;;;;;;1.66;100.00;100934.19;4169912;28;20136;-71
2022/03/18 06:25:37;;;;;;;11.32;4.00;;;;;;;1.69;100.00;100946.50;4168685;28;20130;-72
2022/03/18 06:27:38;;;;;;;15.40;5.05;;;;;;;1.73;100.00;100942.13;4166605;28;20041;-71
2022/03/18 06:29:42;;;;;;;7.45;4.95;;;;;;;1.73;100.00;100939.41;4175719;28;20070;-71
2022/03/18 06:31:43;;;;;;;10.88;5.53;;;;;;;1.74;100.00;100949.28;4173175;28;20079;-71
2022/03/18 06:33:46;;;;;;;9.85;5.25;;;;;;;1.74;100.00;100946.53;4176866;28;20045;-71
2022/03/18 06:35:46;;;;;;;13.77;5.97;;;;;;;1.74;100.00;100951.16;4173029;28;20037;-71
2022/03/18 06:37:47;;;;;;;14.35;5.35;;;;;;;1.79;100.00;100960.22;4173678;28;20047;-71
2022/03/18 06:39:47;;;;;;;13.65;5.00;;;;;;;1.81;100.00;100963.50;4177558;28;20037;-71
2022/03/18 06:41:48;;;;;;;14.63;5.25;;;;;;;1.84;100.00;100954.81;4174587;28;20121;-71
2022/03/18 06:43:49;;;;;;;14.00;5.57;;;;;;;1.90;100.00;100967.44;4176129;28;20715;-71
2022/03/18 06:45:50;;;;;;;8.07;5.20;;;;;;;1.90;100.00;100969.31;4175221;28;20429;-70
2022/03/18 06:47:50;;;;;;;9.63;6.43;;;;;;;1.90;100.00;100972.03;4174935;28;20117;-71
2022/03/18 06:49:50;;;;;;;17.65;5.70;;;;;;;1.91;100.00;100984.63;4174444;28;20119;-71
2022/03/18 06:51:51;;;;;;;12.15;5.90;;;;;;;1.93;100.00;100983.28;4177721;28;20351;-71
2022/03/18 06:53:51;;;;;;;14.32;6.00;;;;;;;2.02;100.00;100988.28;4174383;28;20051;-71
2022/03/18 06:55:51;;;;;;;8.68;4.97;;;;;;;2.04;100.00;100995.09;4176902;28;20142;-71
2022/03/18 06:57:52;;;;;;;13.93;6.25;;;;;;;2.12;100.00;100999.28;4169949;28;20040;-71
2022/03/18 06:59:52;;;;;;;16.20;6.20;;;;;;;2.13;99.96;101007.19;4174122;28;20029;-71
2022/03/18 07:01:54;;;;;;;13.18;5.38;;;;;;;2.16;99.56;100994.94;4174920;28;20393;-71
2022/03/18 07:03:54;;;;;;;15.40;6.78;;;;;;;2.18;99.45;101004.53;4176734;28;20097;-71
2022/03/18 07:05:54;;;;;;;14.52;5.40;;;;;;;2.22;97.80;101013.00;4176016;28;20572;-71
2022/03/18 07:07:55;;;;;;;14.90;5.57;;;;;;;2.23;98.31;101017.38;4175837;28;20079;-71
2022/03/18 07:09:55;;;;;;;15.05;6.68;;;;;;;2.25;98.86;101010.59;4176472;28;20040;-71
2022/03/18 07:11:55;;;;;;;15.90;6.18;;;;;;;2.31;99.39;101011.44;4171611;28;20053;-71
2022/03/18 07:13:56;;;;;;;14.13;6.15;;;;;;;2.37;98.38;101009.56;4173714;28;20047;-71
2022/03/18 07:17:54;;;;;;;22.10;6.35;;;;;;;2.43;98.63;101008.53;4174060;28;20040;-71
2022/03/18 07:18:17;;;;;;;19.77;6.18;;;;;;;2.49;97.22;101013.78;4156834;28;20077;-71
2022/03/18 07:20:17;;;;;;;12.63;6.35;;;;;;;2.54;96.24;101021.16;4160614;28;20048;-71
2022/03/18 07:22:18;;;;;;;11.57;5.43;;;;;;;2.58;95.65;101027.78;4159282;28;20025;-71
2022/03/18 07:24:19;;;;;;;14.63;5.35;;;;;;;2.63;94.14;101032.44;4159640;28;20514;-71
2022/03/18 07:26:19;;;;;;;15.77;5.20;;;;;;;2.68;95.05;101029.75;4160144;28;20017;-70
2022/03/18 07:28:19;;;;;;;21.08;6.28;;;;;;;2.81;94.68;101040.19;4157999;28;20033;-71
2022/03/18 07:30:20;;;;;;;18.70;5.05;;;;;;;2.86;94.95;101032.03;4158032;28;20052;-71
2022/03/18 07:32:21;;;;;;;15.25;6.03;;;;;;;2.90;95.13;101029.63;4159599;28;20096;-71
2022/03/18 07:34:22;;;;;;;13.25;4.78;;;;;;;2.93;94.67;101050.94;4159598;28;20447;-71
2022/03/18 07:36:22;;;;;;;18.52;6.35;;;;;;;2.96;94.81;101045.75;4158675;28;20059;-71
2022/03/18 07:38:22;;;;;;;12.65;5.57;;;;;;;2.99;94.40;101038.97;4105502;28;20132;-71
2022/03/18 07:40:23;;;;;;;13.73;5.88;;;;;;;2.96;93.01;101042.19;4176108;28;20072;-71
2022/03/18 07:42:23;;;;;;;15.98;5.85;;;;;;;2.99;92.39;101047.97;4175033;28;20045;-71
2022/03/18 07:44:24;;;;;;;18.48;5.95;;;;;;;2.98;93.07;101046.34;4174761;28;20041;-71
2022/03/18 07:46:24;;;;;;;20.17;6.65;;;;;;;3.02;93.22;101052.09;4174079;28;20286;-71
2022/03/18 07:48:27;;;;;;;16.55;5.63;;;;;;;2.99;92.64;101036.22;4175070;28;20221;-71
2022/03/18 07:50:30;;;;;;;14.38;5.93;;;;;;;3.07;92.83;101052.94;4175495;28;20347;-71
2022/03/18 07:52:30;;;;;;;16.63;5.35;;;;;;;3.10;92.67;101046.13;4170909;28;20064;-71
2022/03/18 07:54:30;;;;;;;13.48;5.47;;;;;;;3.16;91.82;101049.72;4176475;28;20528;-71
2022/03/18 07:56:31;;;;;;;13.55;4.53;;;;;;;3.16;91.03;101052.44;4169938;28;20185;-71
2022/03/18 07:58:31;;;;;;;15.57;5.28;;;;;;;3.23;91.57;101048.38;4169179;28;20089;-71
2022/03/18 08:00:32;;;;;;;13.43;5.30;;;;;;;3.31;93.12;101052.50;4169936;28;20381;-71
2022/03/18 08:02:32;;;;;;;13.20;5.07;;;;;;;3.38;91.36;101045.69;4169427;28;20080;-71
2022/03/18 08:04:34;;;;;;;16.90;5.43;;;;;;;3.38;90.58;101048.41;4169548;28;20504;-71
2022/03/18 08:06:34;;;;;;;14.88;5.80;;;;;;;3.38;90.24;101042.13;4172022;28;20639;-71
2022/03/18 08:08:35;;;;;;;15.23;5.78;;;;;;;3.45;91.32;101050.91;4175316;28;20484;-71
2022/03/18 08:10:36;;;;;;;13.40;4.28;;;;;;;3.47;91.02;101048.72;4171196;28;20116;-71
2022/03/18 08:12:38;;;;;;;11.60;5.10;;;;;;;3.56;91.84;101049.06;4174305;28;20043;-71
2022/03/18 08:14:39;;;;;;;16.55;5.38;;;;;;;3.55;90.65;101050.13;4170170;28;20048;-71
2022/03/18 08:16:39;;;;;;;13.98;5.20;;;;;;;3.64;90.42;101060.31;4168921;28;20045;-71
2022/03/18 08:18:39;;;;;;;15.95;4.75;;;;;;;3.63;89.02;101068.75;4169500;28;20044;-71
2022/03/18 08:20:40;;;;;;;14.43;5.45;;;;;;;3.70;90.40;101063.84;4174984;28;20048;-71
2022/03/18 08:22:41;;;;;;;15.90;4.97;;;;;;;3.80;90.20;101065.78;4172619;28;20155;-71
2022/03/18 08:24:41;;;;;;;13.23;5.25;;;;;;;3.81;88.80;101059.25;4168895;28;20123;-71
2022/03/18 08:26:42;;;;;;;15.65;5.32;;;;;;;3.85;88.42;101058.44;4172022;28;20155;-71
2022/03/18 08:28:43;;;;;;;10.00;5.10;;;;;;;3.93;89.20;101060.63;4175476;28;20044;-71
2022/03/18 08:30:43;;;;;;;13.77;5.18;;;;;;;3.97;88.70;101060.06;4170705;28;20667;-71
2022/03/18 08:32:44;;;;;;;18.73;5.32;;;;;;;3.99;88.29;101057.91;4171715;28;20081;-71
2022/03/18 08:34:44;;;;;;;13.02;5.13;;;;;;;3.95;87.98;101058.44;4169539;28;20248;-71
2022/03/18 08:36:44;;;;;;;15.43;6.55;;;;;;;4.00;88.33;101063.13;4177804;28;20102;-71
2022/03/18 08:38:45;;;;;;;16.38;7.15;;;;;;;4.13;87.82;101068.03;4183420;28;20045;-71
2022/03/18 08:40:45;;;;;;;16.13;5.00;;;;;;;4.17;87.15;101073.81;4176432;28;20048;-71
2022/03/18 08:42:45;;;;;;;10.45;4.97;;;;;;;4.18;86.60;101064.50;4165776;28;20052;-71
2022/03/18 08:44:46;;;;;;;10.18;4.80;;;;;;;4.10;87.08;101070.53;4165066;28;20107;-71
2022/03/18 08:46:47;;;;;;;17.00;6.03;;;;;;;4.11;87.83;101074.91;4170169;28;20094;-71
2022/03/18 08:48:48;;;;;;;11.77;4.88;;;;;;;4.18;89.41;101069.97;4176915;28;20373;-71
2022/03/18 08:50:48;;;;;;;16.33;5.28;;;;;;;4.17;88.40;101073.81;4174691;28;20048;-71
2022/03/18 08:52:52;;;;;;;17.13;5.78;;;;;;;4.22;87.82;101071.09;4175686;28;20283;-71
2022/03/18 08:54:52;;;;;;;15.85;5.38;;;;;;;4.28;87.15;101069.97;4175139;28;20123;-71
2022/03/18 08:56:53;;;;;;;18.27;5.28;;;;;;;4.32;87.82;101075.75;4173438;28;20075;-71
2022/03/18 08:58:53;;;;;;;13.40;4.78;;;;;;;4.39;88.00;101066.16;4175943;28;20408;-71
2022/03/18 09:00:53;;;;;;;15.18;5.75;;;;;;;4.39;86.65;101068.09;4174219;28;20036;-71
2022/03/18 09:02:54;;;;;;;12.32;5.22;;;;;;;4.33;86.28;101069.19;4174853;28;20048;-70
2022/03/18 09:04:54;;;;;;;13.77;5.28;;;;;;;4.38;87.17;101072.72;4176194;28;20075;-70
2022/03/18 09:06:54;;;;;;;18.90;5.72;;;;;;;4.44;88.83;101076.28;4173370;28;20498;-71
2022/03/18 09:09:03;;;;;;;14.18;5.20;;;;;;;4.40;85.17;101077.97;4175621;28;20053;-71
2022/03/18 09:11:04;;;;;;;20.33;6.13;;;;;;;4.34;86.03;101081.78;4174874;28;20426;-71
2022/03/18 09:13:04;;;;;;;16.77;6.00;;;;;;;4.29;87.46;101092.72;4174684;28;20102;-71
2022/03/18 09:15:05;;;;;;;15.50;5.78;;;;;;;4.28;86.38;101093.84;4173616;28;20053;-71
2022/03/18 09:17:05;;;;;;;16.73;5.28;;;;;;;4.25;87.18;101091.66;4174213;28;20451;-71
2022/03/18 09:19:07;;;;;;;12.57;5.85;;;;;;;4.14;88.58;101088.91;4175945;28;20052;-71
2022/03/18 09:21:07;;;;;;;15.13;6.18;;;;;;;4.35;88.69;101089.72;4178539;28;20182;-71
2022/03/18 09:23:08;;;;;;;16.65;5.82;;;;;;;4.45;87.46;101095.22;4168664;28;20138;-71
2022/03/18 09:25:09;;;;;;;15.38;5.97;;;;;;;4.44;84.88;101088.09;4170237;28;20479;-71
2022/03/18 09:27:10;;;;;;;11.57;5.20;;;;;;;4.46;85.97;101094.09;4171453;28;20037;-71
2022/03/18 09:29:12;;;;;;;14.00;5.82;;;;;;;4.42;85.87;101092.22;4172270;28;20715;-71
2022/03/18 09:31:13;;;;;;;17.00;6.20;;;;;;;4.42;87.59;101092.22;4176706;28;20041;-71
2022/03/18 09:33:13;;;;;;;9.95;5.50;;;;;;;4.48;87.29;101099.34;4186990;28;20111;-71
2022/03/18 09:35:16;;;;;;;22.65;7.15;;;;;;;4.54;86.52;101097.41;4178567;28;20049;-71
2022/03/18 09:37:17;;;;;;;17.00;6.13;;;;;;;4.57;86.41;101089.47;4190187;28;20040;-71